sensor_id;sensor_type;location;lat;lon;timestamp;temperature;humidity
14099;DHT22;7126;48.458;7.930;2022-09-09T00:00:23;18.80;99.90
14099;DHT22;7126;48.458;7.930;2022-09-09T00:07:55;18.80;99.90
14099;DHT22;7126;48.458;7.930;2022-09-09T00:10:38;18.90;99.90
14099;DHT22;7126;48.458;7.930;2022-09-09T00:13:28;18.90;99.90
14099;DHT22;7126;48.458;7.930;2022-09-09T00:16:19;18.90;99.90
14099;DHT22;7126;48.458;7.930;2022-09-09T00:21:17;18.90;99.90
14099;DHT22;7126;48.458;7.930;2022-09-09T00:24:23;18.80;99.90
14099;DHT22;7126;48.458;7.930;2022-09-09T00:26:55;18.90;99.90
14099;DHT22;7126;48.458;7.930;2022-09-09T00:29:42;18.90;99.90
14099;DHT22;7126;48.458;7.930;2022-09-09T00:32:16;18.90;99.90
14099;DHT22;7126;48.458;7.930;2022-09-09T00:34:56;18.70;99.90
14099;DHT22;7126;48.458;7.930;2022-09-09T00:37:24;18.70;99.90
14099;DHT22;7126;48.458;7.930;2022-09-09T00:39:57;18.70;99.90
14099;DHT22;7126;48.458;7.930;2022-09-09T00:42:30;18.70;99.90
14099;DHT22;7126;48.458;7.930;2022-09-09T00:45:42;18.70;99.90
14099;DHT22;7126;48.458;7.930;2022-09-09T00:48:11;18.60;99.90
14099;DHT22;7126;48.458;7.930;2022-09-09T00:50:59;18.60;99.90
14099;DHT22;7126;48.458;7.930;2022-09-09T00:56:22;18.50;99.90
14099;DHT22;7126;48.458;7.930;2022-09-09T00:59:08;18.50;99.90
14099;DHT22;7126;48.458;7.930;2022-09-09T01:01:37;18.50;99.90
14099;DHT22;7126;48.458;7.930;2022-09-09T01:04:12;18.50;99.90
14099;DHT22;7126;48.458;7.930;2022-09-09T01:06:41;18.50;99.90
14099;DHT22;7126;48.458;7.930;2022-09-09T01:10:00;18.50;99.90
14099;DHT22;7126;48.458;7.930;2022-09-09T01:12:25;18.50;99.90
14099;DHT22;7126;48.458;7.930;2022-09-09T01:14:56;18.60;99.90
14099;DHT22;7126;48.458;7.930;2022-09-09T01:17:32;18.60;99.90
14099;DHT22;7126;48.458;7.930;2022-09-09T01:22:47;18.60;99.90
14099;DHT22;7126;48.458;7.930;2022-09-09T01:25:26;18.60;99.90
14099;DHT22;7126;48.458;7.930;2022-09-09T01:27:56;18.60;99.90
14099;DHT22;7126;48.458;7.930;2022-09-09T01:30:23;18.60;99.90
14099;DHT22;7126;48.458;7.930;2022-09-09T01:32:51;18.50;99.90
14099;DHT22;7126;48.458;7.930;2022-09-09T01:35:40;18.60;99.90
14099;DHT22;7126;48.458;7.930;2022-09-09T01:38:08;18.60;99.90
14099;DHT22;7126;48.458;7.930;2022-09-09T01:40:34;18.60;99.90
14099;DHT22;7126;48.458;7.930;2022-09-09T01:43:00;18.60;99.90
14099;DHT22;7126;48.458;7.930;2022-09-09T01:45:26;18.60;99.90
14099;DHT22;7126;48.458;7.930;2022-09-09T01:47:52;18.60;99.90
14099;DHT22;7126;48.458;7.930;2022-09-09T01:50:19;18.60;99.90
14099;DHT22;7126;48.458;7.930;2022-09-09T01:52:50;18.60;99.90
14099;DHT22;7126;48.458;7.930;2022-09-09T01:55:20;18.60;99.90
14099;DHT22;7126;48.458;7.930;2022-09-09T01:58:01;18.60;99.90
14099;DHT22;7126;48.458;7.930;2022-09-09T02:00:32;18.50;99.90
14099;DHT22;7126;48.458;7.930;2022-09-09T02:03:22;18.50;99.90
14099;DHT22;7126;48.458;7.930;2022-09-09T02:08:53;18.40;99.90
14099;DHT22;7126;48.458;7.930;2022-09-09T02:11:23;18.40;99.90
14099;DHT22;7126;48.458;7.930;2022-09-09T02:13:53;18.40;99.90
14099;DHT22;7126;48.458;7.930;2022-09-09T02:16:40;18.30;99.90
14099;DHT22;7126;48.458;7.930;2022-09-09T02:19:14;18.20;99.90
14099;DHT22;7126;48.458;7.930;2022-09-09T02:21:43;18.10;99.90
14099;DHT22;7126;48.458;7.930;2022-09-09T02:24:12;18.00;99.90
14099;DHT22;7126;48.458;7.930;2022-09-09T02:26:42;18.00;99.90
14099;DHT22;7126;48.458;7.930;2022-09-09T02:29:35;17.90;99.90
14099;DHT22;7126;48.458;7.930;2022-09-09T02:32:04;17.90;99.90
14099;DHT22;7126;48.458;7.930;2022-09-09T02:34:34;17.90;99.90
14099;DHT22;7126;48.458;7.930;2022-09-09T02:37:02;17.90;99.90
14099;DHT22;7126;48.458;7.930;2022-09-09T02:39:28;17.80;99.90
14099;DHT22;7126;48.458;7.930;2022-09-09T02:41:54;17.80;99.90
14099;DHT22;7126;48.458;7.930;2022-09-09T02:44:19;17.80;99.90
14099;DHT22;7126;48.458;7.930;2022-09-09T02:47:13;17.80;99.90
14099;DHT22;7126;48.458;7.930;2022-09-09T02:58:04;17.90;99.90
14099;DHT22;7126;48.458;7.930;2022-09-09T03:00:32;17.90;99.90
14099;DHT22;7126;48.458;7.930;2022-09-09T03:02:59;17.90;99.90
14099;DHT22;7126;48.458;7.930;2022-09-09T03:05:25;17.90;99.90
14099;DHT22;7126;48.458;7.930;2022-09-09T03:07:51;18.00;99.90
14099;DHT22;7126;48.458;7.930;2022-09-09T03:10:17;18.00;99.90
14099;DHT22;7126;48.458;7.930;2022-09-09T03:12:43;18.00;99.90
14099;DHT22;7126;48.458;7.930;2022-09-09T03:15:09;18.00;99.90
14099;DHT22;7126;48.458;7.930;2022-09-09T03:17:35;18.00;99.90
14099;DHT22;7126;48.458;7.930;2022-09-09T03:20:03;17.90;99.90
14099;DHT22;7126;48.458;7.930;2022-09-09T03:22:28;17.90;99.90
14099;DHT22;7126;48.458;7.930;2022-09-09T03:24:54;18.00;99.90
14099;DHT22;7126;48.458;7.930;2022-09-09T03:27:19;18.00;99.90
14099;DHT22;7126;48.458;7.930;2022-09-09T03:29:46;17.90;99.90
14099;DHT22;7126;48.458;7.930;2022-09-09T03:32:12;17.90;99.90
14099;DHT22;7126;48.458;7.930;2022-09-09T03:34:38;17.90;99.90
14099;DHT22;7126;48.458;7.930;2022-09-09T03:37:06;17.90;99.90
14099;DHT22;7126;48.458;7.930;2022-09-09T03:39:32;17.80;99.90
14099;DHT22;7126;48.458;7.930;2022-09-09T03:41:57;17.70;99.90
14099;DHT22;7126;48.458;7.930;2022-09-09T03:44:23;17.70;99.90
14099;DHT22;7126;48.458;7.930;2022-09-09T03:46:48;17.80;99.90
14099;DHT22;7126;48.458;7.930;2022-09-09T03:49:14;17.80;99.90
14099;DHT22;7126;48.458;7.930;2022-09-09T03:51:40;17.80;99.90
14099;DHT22;7126;48.458;7.930;2022-09-09T03:54:07;17.80;99.90
14099;DHT22;7126;48.458;7.930;2022-09-09T03:56:35;17.70;99.90
14099;DHT22;7126;48.458;7.930;2022-09-09T03:59:01;17.70;99.90
14099;DHT22;7126;48.458;7.930;2022-09-09T04:01:28;17.70;99.90
14099;DHT22;7126;48.458;7.930;2022-09-09T04:03:53;17.70;99.90
14099;DHT22;7126;48.458;7.930;2022-09-09T04:06:22;17.70;99.90
14099;DHT22;7126;48.458;7.930;2022-09-09T04:08:48;17.60;99.90
14099;DHT22;7126;48.458;7.930;2022-09-09T04:11:15;17.60;99.90
14099;DHT22;7126;48.458;7.930;2022-09-09T04:13:41;17.60;99.90
14099;DHT22;7126;48.458;7.930;2022-09-09T04:16:09;17.60;99.90
14099;DHT22;7126;48.458;7.930;2022-09-09T04:18:35;17.60;99.90
14099;DHT22;7126;48.458;7.930;2022-09-09T04:21:01;17.50;99.90
14099;DHT22;7126;48.458;7.930;2022-09-09T04:23:28;17.50;99.90
14099;DHT22;7126;48.458;7.930;2022-09-09T04:25:57;17.40;99.90
14099;DHT22;7126;48.458;7.930;2022-09-09T04:28:25;17.30;99.90
14099;DHT22;7126;48.458;7.930;2022-09-09T04:30:51;17.20;99.90
14099;DHT22;7126;48.458;7.930;2022-09-09T04:33:17;17.20;99.90
14099;DHT22;7126;48.458;7.930;2022-09-09T04:35:47;17.20;99.90
14099;DHT22;7126;48.458;7.930;2022-09-09T04:38:14;17.20;99.90
14099;DHT22;7126;48.458;7.930;2022-09-09T04:40:43;17.10;99.90
14099;DHT22;7126;48.458;7.930;2022-09-09T04:43:09;17.10;99.90
14099;DHT22;7126;48.458;7.930;2022-09-09T04:45:35;17.20;99.90
14099;DHT22;7126;48.458;7.930;2022-09-09T04:48:02;17.20;99.90
14099;DHT22;7126;48.458;7.930;2022-09-09T04:50:28;17.10;99.90
14099;DHT22;7126;48.458;7.930;2022-09-09T04:52:54;17.20;99.90
14099;DHT22;7126;48.458;7.930;2022-09-09T04:55:19;17.20;99.90
14099;DHT22;7126;48.458;7.930;2022-09-09T04:57:45;17.10;99.90
14099;DHT22;7126;48.458;7.930;2022-09-09T05:00:11;17.10;99.90
14099;DHT22;7126;48.458;7.930;2022-09-09T05:02:38;17.20;99.90
14099;DHT22;7126;48.458;7.930;2022-09-09T05:05:04;17.20;99.90
14099;DHT22;7126;48.458;7.930;2022-09-09T05:07:30;17.20;99.90
14099;DHT22;7126;48.458;7.930;2022-09-09T05:09:56;17.20;99.90
14099;DHT22;7126;48.458;7.930;2022-09-09T05:12:22;17.20;99.90
14099;DHT22;7126;48.458;7.930;2022-09-09T05:14:53;17.30;99.90
14099;DHT22;7126;48.458;7.930;2022-09-09T05:17:19;17.30;99.90
14099;DHT22;7126;48.458;7.930;2022-09-09T05:19:44;17.30;99.90
14099;DHT22;7126;48.458;7.930;2022-09-09T05:22:10;17.40;99.90
14099;DHT22;7126;48.458;7.930;2022-09-09T05:24:37;17.50;99.90
14099;DHT22;7126;48.458;7.930;2022-09-09T05:27:03;17.50;99.90
14099;DHT22;7126;48.458;7.930;2022-09-09T05:29:31;17.50;99.90
14099;DHT22;7126;48.458;7.930;2022-09-09T05:31:59;17.50;99.90
14099;DHT22;7126;48.458;7.930;2022-09-09T05:34:24;17.50;99.90
14099;DHT22;7126;48.458;7.930;2022-09-09T05:36:50;17.50;99.90
14099;DHT22;7126;48.458;7.930;2022-09-09T05:39:17;17.60;99.90
14099;DHT22;7126;48.458;7.930;2022-09-09T05:41:43;17.60;99.90
14099;DHT22;7126;48.458;7.930;2022-09-09T05:44:09;17.60;99.90
14099;DHT22;7126;48.458;7.930;2022-09-09T05:46:34;17.60;99.90
14099;DHT22;7126;48.458;7.930;2022-09-09T05:49:00;17.60;99.90
14099;DHT22;7126;48.458;7.930;2022-09-09T05:51:28;17.60;99.90
14099;DHT22;7126;48.458;7.930;2022-09-09T05:53:56;17.70;99.90
14099;DHT22;7126;48.458;7.930;2022-09-09T05:56:25;17.80;99.90
14099;DHT22;7126;48.458;7.930;2022-09-09T05:58:53;17.90;99.90
14099;DHT22;7126;48.458;7.930;2022-09-09T06:01:22;17.90;99.90
14099;DHT22;7126;48.458;7.930;2022-09-09T06:03:49;18.00;99.90
14099;DHT22;7126;48.458;7.930;2022-09-09T06:06:17;18.00;99.90
14099;DHT22;7126;48.458;7.930;2022-09-09T06:08:45;18.10;99.90
14099;DHT22;7126;48.458;7.930;2022-09-09T06:11:17;18.20;99.90
14099;DHT22;7126;48.458;7.930;2022-09-09T06:13:43;18.30;99.90
14099;DHT22;7126;48.458;7.930;2022-09-09T06:16:16;18.30;99.90
14099;DHT22;7126;48.458;7.930;2022-09-09T06:18:42;18.40;99.90
14099;DHT22;7126;48.458;7.930;2022-09-09T06:21:21;18.40;99.90
14099;DHT22;7126;48.458;7.930;2022-09-09T06:23:47;18.50;99.90
14099;DHT22;7126;48.458;7.930;2022-09-09T06:26:17;18.40;99.90
14099;DHT22;7126;48.458;7.930;2022-09-09T06:28:44;18.50;99.90
14099;DHT22;7126;48.458;7.930;2022-09-09T06:31:12;18.50;99.90
14099;DHT22;7126;48.458;7.930;2022-09-09T06:33:39;18.60;99.90
14099;DHT22;7126;48.458;7.930;2022-09-09T06:36:28;18.60;99.90
14099;DHT22;7126;48.458;7.930;2022-09-09T06:38:52;18.70;99.90
14099;DHT22;7126;48.458;7.930;2022-09-09T06:41:22;18.80;99.90
14099;DHT22;7126;48.458;7.930;2022-09-09T06:43:48;18.80;99.90
14099;DHT22;7126;48.458;7.930;2022-09-09T06:46:21;19.00;99.90
14099;DHT22;7126;48.458;7.930;2022-09-09T06:48:47;19.00;99.90
14099;DHT22;7126;48.458;7.930;2022-09-09T06:51:15;19.10;99.90
14099;DHT22;7126;48.458;7.930;2022-09-09T06:53:43;19.10;99.90
14099;DHT22;7126;48.458;7.930;2022-09-09T06:58:35;19.20;99.90
14099;DHT22;7126;48.458;7.930;2022-09-09T07:01:07;19.10;99.90
14099;DHT22;7126;48.458;7.930;2022-09-09T07:03:33;19.00;99.90
14099;DHT22;7126;48.458;7.930;2022-09-09T07:05:59;19.00;99.90
14099;DHT22;7126;48.458;7.930;2022-09-09T07:08:25;18.90;99.90
14099;DHT22;7126;48.458;7.930;2022-09-09T07:10:53;18.90;99.90
14099;DHT22;7126;48.458;7.930;2022-09-09T07:13:26;18.90;99.90
14099;DHT22;7126;48.458;7.930;2022-09-09T07:15:52;18.90;99.90
14099;DHT22;7126;48.458;7.930;2022-09-09T07:18:19;19.00;99.90
14099;DHT22;7126;48.458;7.930;2022-09-09T07:20:53;18.90;99.90
14099;DHT22;7126;48.458;7.930;2022-09-09T07:23:20;18.90;99.90
14099;DHT22;7126;48.458;7.930;2022-09-09T07:25:46;18.90;99.90
14099;DHT22;7126;48.458;7.930;2022-09-09T07:28:11;18.90;99.90
14099;DHT22;7126;48.458;7.930;2022-09-09T07:30:37;18.90;99.90
14099;DHT22;7126;48.458;7.930;2022-09-09T07:33:02;18.80;99.90
14099;DHT22;7126;48.458;7.930;2022-09-09T07:35:29;18.90;99.90
14099;DHT22;7126;48.458;7.930;2022-09-09T07:37:54;19.00;99.90
14099;DHT22;7126;48.458;7.930;2022-09-09T07:40:20;19.00;99.90
14099;DHT22;7126;48.458;7.930;2022-09-09T07:42:47;19.00;99.90
14099;DHT22;7126;48.458;7.930;2022-09-09T07:45:13;19.10;99.90
14099;DHT22;7126;48.458;7.930;2022-09-09T07:47:39;19.10;99.90
14099;DHT22;7126;48.458;7.930;2022-09-09T07:50:08;19.20;99.90
14099;DHT22;7126;48.458;7.930;2022-09-09T07:52:35;19.40;99.90
14099;DHT22;7126;48.458;7.930;2022-09-09T07:55:00;19.40;99.90
14099;DHT22;7126;48.458;7.930;2022-09-09T07:57:28;19.50;99.90
14099;DHT22;7126;48.458;7.930;2022-09-09T07:59:56;19.70;99.90
14099;DHT22;7126;48.458;7.930;2022-09-09T08:02:22;19.80;99.90
14099;DHT22;7126;48.458;7.930;2022-09-09T08:04:49;20.00;99.90
14099;DHT22;7126;48.458;7.930;2022-09-09T08:07:15;20.10;99.90
14099;DHT22;7126;48.458;7.930;2022-09-09T08:09:41;20.20;99.90
14099;DHT22;7126;48.458;7.930;2022-09-09T08:12:07;20.30;99.90
14099;DHT22;7126;48.458;7.930;2022-09-09T08:14:34;20.30;99.90
14099;DHT22;7126;48.458;7.930;2022-09-09T08:16:59;20.30;99.90
14099;DHT22;7126;48.458;7.930;2022-09-09T08:19:25;20.40;99.90
14099;DHT22;7126;48.458;7.930;2022-09-09T08:21:51;20.40;99.90
14099;DHT22;7126;48.458;7.930;2022-09-09T08:24:17;20.30;99.90
14099;DHT22;7126;48.458;7.930;2022-09-09T08:26:47;20.40;99.90
14099;DHT22;7126;48.458;7.930;2022-09-09T08:29:15;20.60;99.90
14099;DHT22;7126;48.458;7.930;2022-09-09T08:31:43;20.80;99.90
14099;DHT22;7126;48.458;7.930;2022-09-09T08:34:09;20.90;99.90
14099;DHT22;7126;48.458;7.930;2022-09-09T08:36:39;21.00;99.90
14099;DHT22;7126;48.458;7.930;2022-09-09T08:39:06;21.00;99.90
14099;DHT22;7126;48.458;7.930;2022-09-09T08:54:51;20.90;99.90
14099;DHT22;7126;48.458;7.930;2022-09-09T08:57:25;20.90;99.90
14099;DHT22;7126;48.458;7.930;2022-09-09T08:59:52;20.90;99.90
14099;DHT22;7126;48.458;7.930;2022-09-09T09:02:32;20.90;99.90
14099;DHT22;7126;48.458;7.930;2022-09-09T09:05:20;20.90;99.90
14099;DHT22;7126;48.458;7.930;2022-09-09T09:10:47;20.80;99.90
14099;DHT22;7126;48.458;7.930;2022-09-09T09:15:55;20.70;99.90
14099;DHT22;7126;48.458;7.930;2022-09-09T09:18:22;20.70;99.90
14099;DHT22;7126;48.458;7.930;2022-09-09T09:21:04;20.70;99.90
14099;DHT22;7126;48.458;7.930;2022-09-09T09:23:39;20.70;99.90
14099;DHT22;7126;48.458;7.930;2022-09-09T09:26:09;20.70;99.90
14099;DHT22;7126;48.458;7.930;2022-09-09T09:28:36;20.60;99.90
14099;DHT22;7126;48.458;7.930;2022-09-09T09:31:07;20.60;99.90
14099;DHT22;7126;48.458;7.930;2022-09-09T09:36:12;20.30;99.90
14099;DHT22;7126;48.458;7.930;2022-09-09T09:38:52;20.20;99.90
14099;DHT22;7126;48.458;7.930;2022-09-09T09:41:29;20.00;99.90
14099;DHT22;7126;48.458;7.930;2022-09-09T09:43:55;20.00;99.90
14099;DHT22;7126;48.458;7.930;2022-09-09T09:46:23;19.90;99.90
14099;DHT22;7126;48.458;7.930;2022-09-09T09:49:02;19.70;99.90
14099;DHT22;7126;48.458;7.930;2022-09-09T09:51:29;19.60;99.90
14099;DHT22;7126;48.458;7.930;2022-09-09T09:54:13;19.50;99.90
14099;DHT22;7126;48.458;7.930;2022-09-09T09:56:43;19.40;99.90
14099;DHT22;7126;48.458;7.930;2022-09-09T10:01:53;19.40;99.90
14099;DHT22;7126;48.458;7.930;2022-09-09T10:04:21;19.50;99.90
14099;DHT22;7126;48.458;7.930;2022-09-09T10:06:49;19.60;99.90
14099;DHT22;7126;48.458;7.930;2022-09-09T10:09:26;19.70;99.90
14099;DHT22;7126;48.458;7.930;2022-09-09T10:14:40;19.80;99.90
14099;DHT22;7126;48.458;7.930;2022-09-09T10:22:49;20.20;99.90
14099;DHT22;7126;48.458;7.930;2022-09-09T10:33:09;21.50;99.90
14099;DHT22;7126;48.458;7.930;2022-09-09T10:38:18;21.70;99.90
14099;DHT22;7126;48.458;7.930;2022-09-09T10:43:46;21.90;99.90
14099;DHT22;7126;48.458;7.930;2022-09-09T10:46:29;22.10;99.90
14099;DHT22;7126;48.458;7.930;2022-09-09T10:57:50;21.50;99.90
14099;DHT22;7126;48.458;7.930;2022-09-09T11:00:27;21.50;99.90
14099;DHT22;7126;48.458;7.930;2022-09-09T11:03:02;21.50;99.90
14099;DHT22;7126;48.458;7.930;2022-09-09T11:05:53;21.50;99.90
14099;DHT22;7126;48.458;7.930;2022-09-09T11:08:24;21.60;99.90
14099;DHT22;7126;48.458;7.930;2022-09-09T11:21:49;22.40;99.90
14099;DHT22;7126;48.458;7.930;2022-09-09T11:24:23;22.80;99.90
14099;DHT22;7126;48.458;7.930;2022-09-09T11:27:03;23.30;99.90
14099;DHT22;7126;48.458;7.930;2022-09-09T11:30:01;23.60;99.90
14099;DHT22;7126;48.458;7.930;2022-09-09T11:35:30;23.50;99.90
14099;DHT22;7126;48.458;7.930;2022-09-09T11:40:43;22.80;99.90
14099;DHT22;7126;48.458;7.930;2022-09-09T11:43:15;22.80;99.90
14099;DHT22;7126;48.458;7.930;2022-09-09T11:45:43;22.80;99.90
14099;DHT22;7126;48.458;7.930;2022-09-09T11:48:39;22.80;99.90
14099;DHT22;7126;48.458;7.930;2022-09-09T11:56:32;23.40;99.90
14099;DHT22;7126;48.458;7.930;2022-09-09T11:59:05;23.40;99.90
14099;DHT22;7126;48.458;7.930;2022-09-09T12:06:52;22.90;99.90
14099;DHT22;7126;48.458;7.930;2022-09-09T12:09:44;23.30;99.90
14099;DHT22;7126;48.458;7.930;2022-09-09T12:17:23;24.70;99.90
14099;DHT22;7126;48.458;7.930;2022-09-09T12:34:13;25.20;99.90
14099;DHT22;7126;48.458;7.930;2022-09-09T12:36:41;25.30;99.90
14099;DHT22;7126;48.458;7.930;2022-09-09T12:39:18;25.60;99.90
14099;DHT22;7126;48.458;7.930;2022-09-09T12:41:52;25.70;99.90
14099;DHT22;7126;48.458;7.930;2022-09-09T12:44:25;26.00;99.90
14099;DHT22;7126;48.458;7.930;2022-09-09T12:46:53;25.90;99.90
14099;DHT22;7126;48.458;7.930;2022-09-09T12:49:35;25.60;99.90
14099;DHT22;7126;48.458;7.930;2022-09-09T12:52:19;25.20;99.90
14099;DHT22;7126;48.458;7.930;2022-09-09T12:54:48;24.70;99.90
14099;DHT22;7126;48.458;7.930;2022-09-09T12:57:16;24.80;99.90
14099;DHT22;7126;48.458;7.930;2022-09-09T12:59:43;24.90;99.90
14099;DHT22;7126;48.458;7.930;2022-09-09T13:02:22;24.60;99.90
14099;DHT22;7126;48.458;7.930;2022-09-09T13:04:48;24.30;99.90
14099;DHT22;7126;48.458;7.930;2022-09-09T13:07:16;23.90;99.90
14099;DHT22;7126;48.458;7.930;2022-09-09T13:09:43;23.60;99.90
14099;DHT22;7126;48.458;7.930;2022-09-09T13:12:14;23.50;99.90
14099;DHT22;7126;48.458;7.930;2022-09-09T13:14:44;23.40;99.90
14099;DHT22;7126;48.458;7.930;2022-09-09T13:17:24;23.40;99.90
14099;DHT22;7126;48.458;7.930;2022-09-09T13:19:50;23.30;99.90
14099;DHT22;7126;48.458;7.930;2022-09-09T13:22:33;23.30;99.90
14099;DHT22;7126;48.458;7.930;2022-09-09T13:27:40;23.20;99.90
14099;DHT22;7126;48.458;7.930;2022-09-09T13:30:25;23.30;99.90
14099;DHT22;7126;48.458;7.930;2022-09-09T13:33:01;23.50;99.90
14099;DHT22;7126;48.458;7.930;2022-09-09T13:35:27;23.60;99.90
14099;DHT22;7126;48.458;7.930;2022-09-09T13:37:53;24.00;99.90
14099;DHT22;7126;48.458;7.930;2022-09-09T13:40:23;24.50;99.90
14099;DHT22;7126;48.458;7.930;2022-09-09T13:42:55;24.50;99.90
14099;DHT22;7126;48.458;7.930;2022-09-09T13:45:24;24.40;99.90
14099;DHT22;7126;48.458;7.930;2022-09-09T13:47:52;24.20;99.90
14099;DHT22;7126;48.458;7.930;2022-09-09T13:50:26;23.90;99.90
14099;DHT22;7126;48.458;7.930;2022-09-09T13:52:54;23.70;99.90
14099;DHT22;7126;48.458;7.930;2022-09-09T13:55:22;23.90;99.90
14099;DHT22;7126;48.458;7.930;2022-09-09T13:58:02;24.00;99.90
14099;DHT22;7126;48.458;7.930;2022-09-09T14:00:33;24.30;99.90
14099;DHT22;7126;48.458;7.930;2022-09-09T14:02:59;24.70;99.90
14099;DHT22;7126;48.458;7.930;2022-09-09T14:05:30;24.40;99.90
14099;DHT22;7126;48.458;7.930;2022-09-09T14:07:57;24.20;99.90
14099;DHT22;7126;48.458;7.930;2022-09-09T14:10:23;24.00;99.90
14099;DHT22;7126;48.458;7.930;2022-09-09T14:12:49;23.80;99.90
14099;DHT22;7126;48.458;7.930;2022-09-09T14:15:14;23.70;99.90
14099;DHT22;7126;48.458;7.930;2022-09-09T14:17:41;23.70;99.90
14099;DHT22;7126;48.458;7.930;2022-09-09T14:20:08;23.70;99.90
14099;DHT22;7126;48.458;7.930;2022-09-09T14:22:34;23.60;99.90
14099;DHT22;7126;48.458;7.930;2022-09-09T14:25:00;23.60;99.90
14099;DHT22;7126;48.458;7.930;2022-09-09T14:27:26;23.60;99.90
14099;DHT22;7126;48.458;7.930;2022-09-09T14:29:52;23.40;99.90
14099;DHT22;7126;48.458;7.930;2022-09-09T14:32:18;23.30;99.90
14099;DHT22;7126;48.458;7.930;2022-09-09T14:34:44;23.20;99.90
14099;DHT22;7126;48.458;7.930;2022-09-09T14:37:09;23.10;99.90
14099;DHT22;7126;48.458;7.930;2022-09-09T14:39:35;22.90;99.90
14099;DHT22;7126;48.458;7.930;2022-09-09T14:42:00;22.80;99.90
14099;DHT22;7126;48.458;7.930;2022-09-09T14:44:27;22.70;99.90
14099;DHT22;7126;48.458;7.930;2022-09-09T14:46:53;22.60;99.90
14099;DHT22;7126;48.458;7.930;2022-09-09T14:49:19;22.50;99.90
14099;DHT22;7126;48.458;7.930;2022-09-09T14:51:45;22.30;99.90
14099;DHT22;7126;48.458;7.930;2022-09-09T14:54:11;22.10;99.90
14099;DHT22;7126;48.458;7.930;2022-09-09T14:56:37;22.00;99.90
14099;DHT22;7126;48.458;7.930;2022-09-09T14:59:03;22.00;99.90
14099;DHT22;7126;48.458;7.930;2022-09-09T15:01:30;22.00;99.90
14099;DHT22;7126;48.458;7.930;2022-09-09T15:04:02;22.10;99.90
14099;DHT22;7126;48.458;7.930;2022-09-09T15:06:30;22.00;99.90
14099;DHT22;7126;48.458;7.930;2022-09-09T15:08:56;21.90;99.90
14099;DHT22;7126;48.458;7.930;2022-09-09T15:11:31;21.80;99.90
14099;DHT22;7126;48.458;7.930;2022-09-09T15:13:58;21.80;99.90
14099;DHT22;7126;48.458;7.930;2022-09-09T15:16:26;21.70;99.90
14099;DHT22;7126;48.458;7.930;2022-09-09T15:18:56;21.70;99.90
14099;DHT22;7126;48.458;7.930;2022-09-09T15:21:23;21.80;99.90
14099;DHT22;7126;48.458;7.930;2022-09-09T15:23:50;21.90;99.90
14099;DHT22;7126;48.458;7.930;2022-09-09T15:26:16;22.10;99.90
14099;DHT22;7126;48.458;7.930;2022-09-09T15:28:44;22.40;99.90
14099;DHT22;7126;48.458;7.930;2022-09-09T15:31:14;22.70;99.90
14099;DHT22;7126;48.458;7.930;2022-09-09T15:33:40;22.80;99.90
14099;DHT22;7126;48.458;7.930;2022-09-09T15:36:17;22.80;99.90
14099;DHT22;7126;48.458;7.930;2022-09-09T15:38:43;22.70;99.90
14099;DHT22;7126;48.458;7.930;2022-09-09T15:41:09;22.60;99.90
14099;DHT22;7126;48.458;7.930;2022-09-09T15:43:35;22.50;99.90
14099;DHT22;7126;48.458;7.930;2022-09-09T15:48:44;22.40;99.90
14099;DHT22;7126;48.458;7.930;2022-09-09T15:51:10;22.20;99.90
14099;DHT22;7126;48.458;7.930;2022-09-09T15:53:36;22.10;99.90
14099;DHT22;7126;48.458;7.930;2022-09-09T15:56:02;22.10;99.90
14099;DHT22;7126;48.458;7.930;2022-09-09T15:58:30;22.10;99.90
14099;DHT22;7126;48.458;7.930;2022-09-09T16:01:05;22.10;99.90
14099;DHT22;7126;48.458;7.930;2022-09-09T16:03:40;22.00;99.90
14099;DHT22;7126;48.458;7.930;2022-09-09T16:06:08;21.90;99.90
14099;DHT22;7126;48.458;7.930;2022-09-09T16:08:39;21.80;99.90
14099;DHT22;7126;48.458;7.930;2022-09-09T16:11:13;21.80;99.90
14099;DHT22;7126;48.458;7.930;2022-09-09T16:13:41;21.70;99.90
14099;DHT22;7126;48.458;7.930;2022-09-09T16:16:09;21.70;99.90
14099;DHT22;7126;48.458;7.930;2022-09-09T16:18:40;21.60;99.90
14099;DHT22;7126;48.458;7.930;2022-09-09T16:21:07;21.70;99.90
14099;DHT22;7126;48.458;7.930;2022-09-09T16:23:34;21.60;99.90
14099;DHT22;7126;48.458;7.930;2022-09-09T16:25:59;21.60;99.90
14099;DHT22;7126;48.458;7.930;2022-09-09T16:28:25;21.60;99.90
14099;DHT22;7126;48.458;7.930;2022-09-09T16:30:51;21.50;99.90
14099;DHT22;7126;48.458;7.930;2022-09-09T16:33:17;21.40;99.90
14099;DHT22;7126;48.458;7.930;2022-09-09T16:35:42;21.40;99.90
14099;DHT22;7126;48.458;7.930;2022-09-09T16:38:08;21.30;99.90
14099;DHT22;7126;48.458;7.930;2022-09-09T16:40:34;21.40;99.90
14099;DHT22;7126;48.458;7.930;2022-09-09T16:43:02;21.30;99.90
14099;DHT22;7126;48.458;7.930;2022-09-09T16:45:28;21.30;99.90
14099;DHT22;7126;48.458;7.930;2022-09-09T16:47:53;21.40;99.90
14099;DHT22;7126;48.458;7.930;2022-09-09T16:50:19;21.40;99.90
14099;DHT22;7126;48.458;7.930;2022-09-09T16:52:45;21.40;99.90
14099;DHT22;7126;48.458;7.930;2022-09-09T16:55:10;21.30;99.90
14099;DHT22;7126;48.458;7.930;2022-09-09T16:57:36;21.30;99.90
14099;DHT22;7126;48.458;7.930;2022-09-09T17:00:03;21.30;99.90
14099;DHT22;7126;48.458;7.930;2022-09-09T17:02:31;21.40;99.90
14099;DHT22;7126;48.458;7.930;2022-09-09T17:04:56;21.40;99.90
14099;DHT22;7126;48.458;7.930;2022-09-09T17:07:22;21.40;99.90
14099;DHT22;7126;48.458;7.930;2022-09-09T17:09:48;21.40;99.90
14099;DHT22;7126;48.458;7.930;2022-09-09T17:12:14;21.20;99.90
14099;DHT22;7126;48.458;7.930;2022-09-09T17:14:39;21.00;99.90
14099;DHT22;7126;48.458;7.930;2022-09-09T17:17:05;20.90;99.90
14099;DHT22;7126;48.458;7.930;2022-09-09T17:19:31;20.90;99.90
14099;DHT22;7126;48.458;7.930;2022-09-09T17:21:56;20.90;99.90
14099;DHT22;7126;48.458;7.930;2022-09-09T17:24:26;20.90;99.90
14099;DHT22;7126;48.458;7.930;2022-09-09T17:26:52;21.00;99.90
14099;DHT22;7126;48.458;7.930;2022-09-09T17:29:19;21.00;99.90
14099;DHT22;7126;48.458;7.930;2022-09-09T17:31:45;20.90;99.90
14099;DHT22;7126;48.458;7.930;2022-09-09T17:34:10;20.70;99.90
14099;DHT22;7126;48.458;7.930;2022-09-09T17:36:37;20.70;99.90
14099;DHT22;7126;48.458;7.930;2022-09-09T17:39:03;20.50;99.90
14099;DHT22;7126;48.458;7.930;2022-09-09T17:41:35;20.50;99.90
14099;DHT22;7126;48.458;7.930;2022-09-09T17:44:01;20.40;99.90
14099;DHT22;7126;48.458;7.930;2022-09-09T17:46:36;20.40;99.90
14099;DHT22;7126;48.458;7.930;2022-09-09T17:49:07;20.40;99.90
14099;DHT22;7126;48.458;7.930;2022-09-09T17:51:34;20.30;99.90
14099;DHT22;7126;48.458;7.930;2022-09-09T17:54:03;20.20;99.90
14099;DHT22;7126;48.458;7.930;2022-09-09T17:56:30;20.20;99.90
14099;DHT22;7126;48.458;7.930;2022-09-09T17:58:58;20.20;99.90
14099;DHT22;7126;48.458;7.930;2022-09-09T18:01:25;20.20;99.90
14099;DHT22;7126;48.458;7.930;2022-09-09T18:03:53;20.10;99.90
14099;DHT22;7126;48.458;7.930;2022-09-09T18:06:21;20.00;99.90
14099;DHT22;7126;48.458;7.930;2022-09-09T18:08:56;20.10;99.90
14099;DHT22;7126;48.458;7.930;2022-09-09T18:11:25;20.10;99.90
14099;DHT22;7126;48.458;7.930;2022-09-09T18:13:52;20.00;99.90